Time;durP1;ratioP1;P1;durP2;ratioP2;P2;SDS_P1;SDS_P2;PMS_P1;PMS_P2;Temp;Humidity;BMP_temperature;BMP_pressure;BME280_temperature;BME280_humidity;BME280_pressure;Samples;Min_cycle;Max_cycle;Signal;HPM_P1;HPM_P2
2021/12/27 00:02:02;;;;;;;84.80;26.20;;;;;;;;;;6195398;28;20566;-61
2021/12/27 00:05:04;;;;;;;93.50;27.73;;;;;;;;;;6197153;28;20050;-61
2021/12/27 00:08:05;;;;;;;;;;;;;;;;;;6198310;28;20058;-61
2021/12/27 00:11:07;;;;;;;90.63;26.77;;;;;;;;;;6194011;28;19999;-61
2021/12/27 00:14:08;;;;;;;77.45;25.27;;;;;;;;;;6202312;28;20054;-61
2021/12/27 00:17:08;;;;;;;84.78;23.85;;;;;;;;;;6202707;28;20592;-61
2021/12/27 00:20:12;;;;;;;82.00;23.15;;;;;;;;;;6198747;28;20545;-61
2021/12/27 00:23:12;;;;;;;84.90;23.95;;;;;;;;;;6202819;28;20038;-61
2021/12/27 00:26:13;;;;;;;78.03;27.80;;;;;;;;;;6203628;28;20072;-61
2021/12/27 00:29:15;;;;;;;76.78;23.48;;;;;;;;;;6198575;28;20830;-61
2021/12/27 00:32:15;;;;;;;;;;;;;;;;;;6201970;28;20408;-61
2021/12/27 00:35:36;;;;;;;61.67;19.35;;;;;;;;;;6202995;28;20024;-62
2021/12/27 00:38:37;;;;;;;72.38;23.17;;;;;;;;;;6203589;28;20046;-61
2021/12/27 00:41:38;;;;;;;66.90;23.40;;;;;;;;;;6199964;28;20133;-62
2021/12/27 00:44:38;;;;;;;67.03;22.73;;;;;;;;;;6200757;28;20046;-61
2021/12/27 00:47:39;;;;;;;73.20;21.40;;;;;;;;;;6203592;28;20054;-61
2021/12/27 00:50:40;;;;;;;76.90;22.75;;;;;;;;;;6200693;28;20916;-60
2021/12/27 00:53:40;;;;;;;85.68;24.05;;;;;;;;;;6202989;28;20952;-61
2021/12/27 00:56:41;;;;;;;77.10;23.38;;;;;;;;;;6204900;28;20164;-61
2021/12/27 00:59:42;;;;;;;84.90;22.50;;;;;;;;;;6201427;28;20045;-61
2021/12/27 01:02:44;;;;;;;69.47;22.15;;;;;;;;;;6201598;28;20057;-61
2021/12/27 01:05:45;;;;;;;74.60;23.10;;;;;;;;;;6200377;28;20073;-60
2021/12/27 01:08:46;;;;;;;86.97;24.77;;;;;;;;;;6203961;28;20045;-61
2021/12/27 01:15:10;;;;;;;82.43;22.55;;;;;;;;;;6202633;28;20088;-61
2021/12/27 01:18:11;;;;;;;87.35;24.63;;;;;;;;;;6204105;28;20489;-61
2021/12/27 01:21:14;;;;;;;84.18;23.23;;;;;;;;;;6198607;28;20073;-61
2021/12/27 01:24:14;;;;;;;88.63;24.52;;;;;;;;;;6200908;28;20058;-61
2021/12/27 01:27:15;;;;;;;84.80;26.92;;;;;;;;;;6203410;28;20061;-61
2021/12/27 01:30:19;;;;;;;81.00;26.23;;;;;;;;;;6201105;28;20054;-61
2021/12/27 01:33:21;;;;;;;88.85;27.00;;;;;;;;;;6200637;28;20081;-61
2021/12/27 01:36:22;;;;;;;78.50;26.08;;;;;;;;;;6203564;28;20049;-61
2021/12/27 01:39:24;;;;;;;89.43;25.92;;;;;;;;;;6201464;28;20134;-61
2021/12/27 01:42:24;;;;;;;75.45;26.33;;;;;;;;;;6199047;28;20054;-62
2021/12/27 01:45:25;;;;;;;80.90;26.38;;;;;;;;;;6200949;28;20100;-61
2021/12/27 01:48:31;;;;;;;77.25;28.25;;;;;;;;;;6202776;28;20359;-59
2021/12/27 01:51:32;;;;;;;70.28;23.92;;;;;;;;;;6199210;28;20377;-61
2021/12/27 01:54:32;;;;;;;71.95;27.42;;;;;;;;;;6202273;28;20050;-59
2021/12/27 07:49:58;;;;;;;57.05;18.98;;;;;;;;;;6232801;28;20505;-64
2021/12/27 07:52:59;;;;;;;49.80;17.95;;;;;;;;;;6236663;28;20073;-59
2021/12/27 07:55:59;;;;;;;70.15;19.52;;;;;;;;;;6232360;28;20053;-63
2021/12/27 07:59:04;;;;;;;49.42;16.27;;;;;;;;;;6241588;28;20053;-64
2021/12/27 08:02:04;;;;;;;63.97;19.50;;;;;;;;;;6242755;28;20033;-63
2021/12/27 08:05:06;;;;;;;65.20;21.08;;;;;;;;;;6243441;28;20046;-63
2021/12/27 08:08:06;;;;;;;67.20;21.48;;;;;;;;;;6241298;28;20046;-57
2021/12/27 08:11:07;;;;;;;63.10;21.27;;;;;;;;;;6231937;28;20408;-70
2021/12/27 08:14:08;;;;;;;60.75;20.08;;;;;;;;;;6242066;28;20041;-61
2021/12/27 08:17:09;;;;;;;63.53;20.60;;;;;;;;;;6239510;28;20139;-59
2021/12/27 08:20:10;;;;;;;81.72;22.27;;;;;;;;;;6239599;28;20148;-63
2021/12/27 08:23:10;;;;;;;79.40;23.08;;;;;;;;;;6242829;28;20080;-62
2021/12/27 08:26:11;;;;;;;77.03;23.63;;;;;;;;;;6240204;28;20049;-60
2021/12/27 08:29:12;;;;;;;80.78;21.40;;;;;;;;;;6242764;28;20533;-60
2021/12/27 08:32:13;;;;;;;70.38;22.13;;;;;;;;;;6243339;28;20045;-59
2021/12/27 08:35:14;;;;;;;59.78;19.70;;;;;;;;;;6236928;28;20046;-62
2021/12/27 08:38:16;;;;;;;61.00;19.70;;;;;;;;;;6236055;28;20053;-60
2021/12/27 08:41:18;;;;;;;73.32;19.95;;;;;;;;;;6231657;28;20050;-65
2021/12/27 08:44:18;;;;;;;62.42;19.55;;;;;;;;;;6231894;28;20049;-61
2021/12/27 08:47:20;;;;;;;66.55;20.05;;;;;;;;;;6249910;28;20050;-61
2021/12/27 08:50:20;;;;;;;84.88;22.23;;;;;;;;;;6230231;28;20140;-62
2021/12/27 08:53:21;;;;;;;69.20;18.95;;;;;;;;;;6232299;28;20148;-59
2021/12/27 08:56:22;;;;;;;73.53;22.00;;;;;;;;;;6243757;28;20052;-61
2021/12/27 08:59:23;;;;;;;78.03;24.38;;;;;;;;;;6238006;28;20878;-61
2021/12/27 09:02:23;;;;;;;75.20;25.50;;;;;;;;;;6240830;28;20073;-62
2021/12/27 09:05:24;;;;;;;63.20;19.88;;;;;;;;;;6235718;28;20056;-59
2021/12/27 09:08:25;;;;;;;65.70;21.05;;;;;;;;;;6239819;28;20118;-65
2021/12/27 09:11:25;;;;;;;66.15;19.27;;;;;;;;;;6236444;28;20493;-60
2021/12/27 09:14:26;;;;;;;70.05;20.50;;;;;;;;;;6228551;28;20187;-60
2021/12/27 09:17:27;;;;;;;71.47;20.88;;;;;;;;;;6258336;28;20052;-61
2021/12/27 09:20:28;;;;;;;76.05;21.05;;;;;;;;;;6226322;28;20136;-64
2021/12/27 09:23:30;;;;;;;62.58;18.80;;;;;;;;;;6232979;28;20054;-61
2021/12/27 09:26:30;;;;;;;59.45;19.95;;;;;;;;;;6241507;28;20050;-60
2021/12/27 09:29:31;;;;;;;64.07;19.08;;;;;;;;;;6236736;28;20048;-61
2021/12/27 09:32:32;;;;;;;61.40;19.63;;;;;;;;;;6240868;28;20525;-60
2021/12/27 09:35:34;;;;;;;65.75;19.73;;;;;;;;;;6249962;28;20034;-64
2021/12/27 09:38:34;;;;;;;67.40;20.33;;;;;;;;;;6224764;28;20069;-65
2021/12/27 09:41:35;;;;;;;61.17;19.10;;;;;;;;;;6232511;28;20052;-63
2021/12/27 09:44:36;;;;;;;62.55;20.08;;;;;;;;;;6236756;28;20176;-60
2021/12/27 09:47:37;;;;;;;68.88;21.90;;;;;;;;;;6233269;28;20049;-62
2021/12/27 09:50:53;;;;;;;67.25;20.77;;;;;;;;;;6249460;28;20056;-61
2021/12/27 09:53:54;;;;;;;61.80;20.90;;;;;;;;;;6222452;28;20439;-64
2021/12/27 09:56:55;;;;;;;64.85;22.25;;;;;;;;;;6233079;28;20046;-63
2021/12/27 09:59:56;;;;;;;83.13;27.70;;;;;;;;;;6235019;28;20080;-63
2021/12/27 10:02:57;;;;;;;84.82;27.27;;;;;;;;;;6237349;28;20049;-59
2021/12/27 10:06:11;;;;;;;76.07;22.67;;;;;;;;;;6248857;28;20095;-66
2021/12/27 10:09:12;;;;;;;73.68;21.10;;;;;;;;;;6235915;28;20073;-59
2021/12/27 10:12:20;;;;;;;76.68;27.42;;;;;;;;;;6236346;28;20404;-62
2021/12/27 10:15:36;;;;;;;84.90;24.70;;;;;;;;;;6232739;28;20432;-60
2021/12/27 10:18:37;;;;;;;88.25;26.58;;;;;;;;;;6237252;28;20064;-62
2021/12/27 10:21:41;;;;;;;86.97;23.75;;;;;;;;;;6237603;28;20112;-63
2021/12/27 10:24:42;;;;;;;79.32;24.50;;;;;;;;;;6239788;28;20048;-61
2021/12/27 10:27:43;;;;;;;76.82;25.80;;;;;;;;;;6234969;28;20483;-64
2021/12/27 10:30:45;;;;;;;87.07;24.73;;;;;;;;;;6234420;28;20045;-62
2021/12/27 10:33:47;;;;;;;79.38;24.02;;;;;;;;;;6237058;28;20053;-63
2021/12/27 10:37:09;;;;;;;86.13;27.20;;;;;;;;;;6240257;28;20148;-62
2021/12/27 10:40:14;;;;;;;117.57;31.40;;;;;;;;;;6239709;28;20056;-63
2021/12/27 10:43:32;;;;;;;104.47;30.70;;;;;;;;;;6239141;28;20042;-62
2021/12/27 10:46:33;;;;;;;135.18;35.53;;;;;;;;;;6224613;28;20038;-63
2021/12/27 10:49:44;;;;;;;104.28;28.17;;;;;;;;;;6220838;28;20343;-62
2021/12/27 10:52:54;;;;;;;105.22;29.70;;;;;;;;;;6216631;28;20049;-61
2021/12/27 10:55:54;;;;;;;109.00;31.55;;;;;;;;;;6215156;28;20078;-60
2021/12/27 10:58:59;;;;;;;102.45;30.63;;;;;;;;;;6232808;28;20045;-60
2021/12/27 11:02:15;;;;;;;96.28;28.52;;;;;;;;;;6240937;28;20056;-62
2021/12/27 11:05:19;;;;;;;106.05;29.33;;;;;;;;;;6241958;28;20045;-60
2021/12/27 11:08:20;;;;;;;100.63;28.98;;;;;;;;;;6220914;28;20059;-60
2021/12/27 11:11:23;;;;;;;105.03;30.08;;;;;;;;;;6216372;28;20065;-60
2021/12/27 11:14:23;;;;;;;98.75;30.73;;;;;;;;;;6217465;28;20485;-60
2021/12/27 11:17:24;;;;;;;102.15;29.33;;;;;;;;;;6230361;28;20095;-63
2021/12/27 11:20:26;;;;;;;105.50;29.95;;;;;;;;;;6239709;28;20050;-64
2021/12/27 11:23:28;;;;;;;108.73;30.63;;;;;;;;;;6237732;28;20057;-62
2021/12/27 11:26:36;;;;;;;109.00;30.80;;;;;;;;;;6221046;28;20092;-65
2021/12/27 11:29:36;;;;;;;98.13;29.73;;;;;;;;;;6238265;28;20046;-61
2021/12/27 11:32:57;;;;;;;110.13;29.05;;;;;;;;;;6232441;28;20141;-59
2021/12/27 11:35:58;;;;;;;109.13;30.52;;;;;;;;;;6221554;28;20065;-64
2021/12/27 11:39:29;;;;;;;108.85;31.15;;;;;;;;;;6225261;28;20042;-64
2021/12/27 11:43:01;;;;;;;110.00;31.27;;;;;;;;;;6221841;28;20046;-60
2021/12/27 11:46:05;;;;;;;100.22;30.23;;;;;;;;;;6223983;28;20038;-60
2021/12/27 11:49:05;;;;;;;89.45;27.33;;;;;;;;;;6223035;28;20069;-64
2021/12/27 11:52:19;;;;;;;108.28;30.33;;;;;;;;;;6224783;28;20092;-64
2021/12/27 11:55:22;;;;;;;102.65;28.05;;;;;;;;;;6221867;28;20057;-59
2021/12/27 11:58:37;;;;;;;107.72;31.48;;;;;;;;;;6222831;28;20052;-60
2021/12/27 12:01:37;;;;;;;100.65;28.80;;;;;;;;;;6226604;28;20042;-63
2021/12/27 12:04:46;;;;;;;105.63;29.92;;;;;;;;;;6233915;28;20052;-59
2021/12/27 12:07:48;;;;;;;173.05;39.60;;;;;;;;;;6220247;28;20037;-64
2021/12/27 12:11:04;;;;;;;193.35;45.45;;;;;;;;;;6222174;28;20096;-62
2021/12/27 12:14:23;;;;;;;150.25;38.47;;;;;;;;;;6231957;28;20095;-65
2021/12/27 12:17:48;;;;;;;117.65;32.55;;;;;;;;;;6232877;28;20459;-63
2021/12/27 12:20:49;;;;;;;107.00;32.05;;;;;;;;;;6230349;28;20053;-63
2021/12/27 12:23:55;;;;;;;103.22;31.10;;;;;;;;;;6232641;28;20108;-63
2021/12/27 12:27:03;;;;;;;125.43;33.65;;;;;;;;;;6230588;28;20743;-63
2021/12/27 12:30:12;;;;;;;124.90;35.30;;;;;;;;;;6211382;28;20077;-64
2021/12/27 12:33:16;;;;;;;123.95;35.60;;;;;;;;;;6229605;28;20424;-59
2021/12/27 12:36:17;;;;;;;113.03;32.00;;;;;;;;;;6230445;28;20057;-60
2021/12/27 12:39:20;;;;;;;122.07;33.53;;;;;;;;;;6229513;28;20042;-65
2021/12/27 12:42:26;;;;;;;124.68;35.08;;;;;;;;;;6231128;28;20148;-60
2021/12/27 12:45:31;;;;;;;106.63;35.20;;;;;;;;;;6226534;28;20046;-65
2021/12/27 12:48:32;;;;;;;131.45;34.55;;;;;;;;;;6224690;28;20787;-65
2021/12/27 12:51:47;;;;;;;117.25;35.60;;;;;;;;;;6229760;28;20061;-63
2021/12/27 12:54:49;;;;;;;121.20;35.35;;;;;;;;;;6227597;28;20080;-62
2021/12/27 12:57:50;;;;;;;134.55;37.35;;;;;;;;;;6229868;28;20073;-62
2021/12/27 13:00:51;;;;;;;126.57;35.95;;;;;;;;;;6231352;28;20065;-62
2021/12/27 13:03:57;;;;;;;117.25;34.28;;;;;;;;;;6228651;28;20477;-64
2021/12/27 13:06:57;;;;;;;115.40;32.35;;;;;;;;;;6232710;28;20158;-63
2021/12/27 13:09:59;;;;;;;120.03;34.38;;;;;;;;;;6227788;28;20049;-64
2021/12/27 13:13:09;;;;;;;112.38;32.22;;;;;;;;;;6227480;28;20081;-62
2021/12/27 13:16:10;;;;;;;108.47;32.22;;;;;;;;;;6226875;28;20049;-62
2021/12/27 13:19:11;;;;;;;118.63;31.35;;;;;;;;;;6231626;28;20523;-63
2021/12/27 13:22:11;;;;;;;109.38;29.85;;;;;;;;;;6226650;28;20066;-63
2021/12/27 13:25:31;;;;;;;124.40;33.97;;;;;;;;;;6227827;28;20123;-64
2021/12/27 13:28:34;;;;;;;129.50;33.53;;;;;;;;;;6228310;28;20052;-60
2021/12/27 13:31:35;;;;;;;120.57;33.13;;;;;;;;;;6228162;28;20054;-64
2021/12/27 13:34:39;;;;;;;131.20;36.85;;;;;;;;;;6229116;28;20129;-63
2021/12/27 13:37:40;;;;;;;120.45;33.47;;;;;;;;;;6228271;28;20409;-64
2021/12/27 13:40:54;;;;;;;124.00;34.70;;;;;;;;;;6232211;28;20148;-64
2021/12/27 13:44:01;;;;;;;110.72;34.08;;;;;;;;;;6227408;28;20081;-60
2021/12/27 13:47:05;;;;;;;117.30;32.33;;;;;;;;;;6225676;28;20045;-62
2021/12/27 13:50:06;;;;;;;182.40;47.25;;;;;;;;;;6226466;28;20088;-61
2021/12/27 13:53:15;;;;;;;242.50;51.72;;;;;;;;;;6228415;28;20052;-62
2021/12/27 13:56:16;;;;;;;233.63;50.88;;;;;;;;;;6228124;28;20168;-59
2021/12/27 13:59:19;;;;;;;145.73;37.03;;;;;;;;;;6229618;28;20090;-63
2021/12/27 14:02:20;;;;;;;124.05;35.28;;;;;;;;;;6223691;28;20054;-61
2021/12/27 14:05:28;;;;;;;163.50;42.13;;;;;;;;;;6227668;28;20067;-62
2021/12/27 14:08:30;;;;;;;125.57;32.92;;;;;;;;;;6227836;28;20784;-60
2021/12/27 14:11:30;;;;;;;122.72;34.53;;;;;;;;;;6229461;28;20042;-59
2021/12/27 14:14:44;;;;;;;146.80;39.20;;;;;;;;;;6230243;28;20041;-63
2021/12/27 14:17:45;;;;;;;131.52;35.20;;;;;;;;;;6226623;28;20508;-64
2021/12/27 14:21:03;;;;;;;127.05;36.45;;;;;;;;;;6225211;28;20136;-64
2021/12/27 14:24:06;;;;;;;126.60;36.33;;;;;;;;;;6228309;28;20148;-61
2021/12/27 14:27:19;;;;;;;123.43;36.67;;;;;;;;;;6220899;28;21326;-64
2021/12/27 14:30:24;;;;;;;125.60;34.92;;;;;;;;;;6227496;28;20111;-66
2021/12/27 14:33:25;;;;;;;133.52;37.88;;;;;;;;;;6223883;28;20092;-62
2021/12/27 14:36:25;;;;;;;137.02;35.85;;;;;;;;;;6225593;28;20041;-64
2021/12/27 14:39:26;;;;;;;130.50;35.95;;;;;;;;;;6228540;28;20041;-63
2021/12/27 14:42:27;;;;;;;140.73;37.88;;;;;;;;;;6224499;28;20137;-61
2021/12/27 14:45:29;;;;;;;150.50;37.67;;;;;;;;;;6228156;28;20053;-64
2021/12/27 14:48:29;;;;;;;145.65;39.25;;;;;;;;;;6225451;28;20058;-62
2021/12/27 14:51:31;;;;;;;147.65;38.33;;;;;;;;;;6227994;28;20405;-64
2021/12/27 14:54:32;;;;;;;137.82;38.95;;;;;;;;;;6229202;28;20473;-65
2021/12/27 14:57:35;;;;;;;139.75;37.15;;;;;;;;;;6224193;28;20049;-60
2021/12/27 15:00:46;;;;;;;138.65;35.78;;;;;;;;;;6225074;28;20185;-62
2021/12/27 15:03:47;;;;;;;142.95;37.53;;;;;;;;;;6213704;28;20766;-64
2021/12/27 15:06:48;;;;;;;145.27;40.75;;;;;;;;;;6229328;28;20049;-60
2021/12/27 15:09:48;;;;;;;133.73;37.08;;;;;;;;;;6227162;28;20101;-64
2021/12/27 15:12:49;;;;;;;141.23;37.50;;;;;;;;;;6224616;28;20520;-60
2021/12/27 15:15:50;;;;;;;146.45;40.40;;;;;;;;;;6230110;28;20053;-63
2021/12/27 15:18:50;;;;;;;155.00;39.13;;;;;;;;;;6227277;28;20132;-64
2021/12/27 15:21:51;;;;;;;161.00;45.85;;;;;;;;;;6226728;28;20109;-63
2021/12/27 15:24:52;;;;;;;164.80;44.75;;;;;;;;;;6225748;28;20137;-61
2021/12/27 15:27:53;;;;;;;165.13;46.33;;;;;;;;;;6225731;28;20493;-63
2021/12/27 15:30:55;;;;;;;149.38;39.85;;;;;;;;;;6228368;28;20341;-60
2021/12/27 15:33:55;;;;;;;166.95;41.22;;;;;;;;;;6225222;28;20073;-63
2021/12/27 15:36:56;;;;;;;143.35;40.17;;;;;;;;;;6215509;28;20123;-62
2021/12/27 15:39:57;;;;;;;143.40;36.67;;;;;;;;;;6216891;28;20084;-59
2021/12/27 15:42:58;;;;;;;169.32;42.40;;;;;;;;;;6225294;28;20490;-61
2021/12/27 15:46:01;;;;;;;158.68;39.95;;;;;;;;;;6231837;28;20046;-64
2021/12/27 15:49:01;;;;;;;139.40;40.37;;;;;;;;;;6229846;28;20150;-60
2021/12/27 15:52:03;;;;;;;144.60;39.50;;;;;;;;;;6227110;28;20559;-60
2021/12/27 15:55:06;;;;;;;156.63;42.35;;;;;;;;;;6223320;28;20046;-63
2021/12/27 15:58:07;;;;;;;146.20;40.85;;;;;;;;;;6222354;28;20168;-60
2021/12/27 16:01:10;;;;;;;155.82;38.45;;;;;;;;;;6227263;28;20046;-63
2021/12/27 16:04:12;;;;;;;162.15;40.72;;;;;;;;;;6224635;28;20483;-61
2021/12/27 16:07:13;;;;;;;160.00;42.83;;;;;;;;;;6225992;28;20058;-62
2021/12/27 16:10:14;;;;;;;135.65;40.03;;;;;;;;;;6222829;28;20480;-65
2021/12/27 16:13:14;;;;;;;145.35;38.63;;;;;;;;;;6226059;28;20083;-60
2021/12/27 16:16:16;;;;;;;133.35;39.60;;;;;;;;;;6225679;28;20064;-60
2021/12/27 16:19:17;;;;;;;145.07;39.10;;;;;;;;;;6224868;28;20488;-60
2021/12/27 16:22:18;;;;;;;145.02;38.97;;;;;;;;;;6229419;28;20037;-63
2021/12/27 16:25:19;;;;;;;241.20;56.65;;;;;;;;;;6232854;28;20955;-61
2021/12/27 16:28:20;;;;;;;175.53;46.53;;;;;;;;;;6230655;28;20045;-64
2021/12/27 16:31:21;;;;;;;149.53;40.80;;;;;;;;;;6228583;28;20057;-61
2021/12/27 16:34:22;;;;;;;138.60;38.22;;;;;;;;;;6229124;28;20412;-61
2021/12/27 16:37:23;;;;;;;141.48;36.75;;;;;;;;;;6229332;28;20141;-61
2021/12/27 16:40:25;;;;;;;165.05;42.42;;;;;;;;;;6227178;28;20045;-61
2021/12/27 16:43:26;;;;;;;171.27;44.70;;;;;;;;;;6228321;28;20382;-61
2021/12/27 16:46:28;;;;;;;178.70;45.45;;;;;;;;;;6227990;28;20038;-60
2021/12/27 16:49:28;;;;;;;178.77;44.72;;;;;;;;;;6225618;28;20088;-60
2021/12/27 16:52:29;;;;;;;138.55;39.50;;;;;;;;;;6225173;28;20042;-60
2021/12/27 16:55:31;;;;;;;156.23;42.15;;;;;;;;;;6227067;28;20140;-59
2021/12/27 16:58:32;;;;;;;154.63;42.22;;;;;;;;;;6225816;28;20061;-61
2021/12/27 17:01:32;;;;;;;163.10;43.97;;;;;;;;;;6227375;28;20063;-62
2021/12/27 17:04:33;;;;;;;150.75;40.65;;;;;;;;;;6226944;28;20068;-61
2021/12/27 17:07:34;;;;;;;158.02;42.55;;;;;;;;;;6227107;28;20112;-61
2021/12/27 17:10:35;;;;;;;142.88;39.80;;;;;;;;;;6225018;28;20679;-62
2021/12/27 17:13:36;;;;;;;143.77;40.45;;;;;;;;;;6228541;28;20124;-61
2021/12/27 17:16:38;;;;;;;147.02;41.95;;;;;;;;;;6229807;28;20052;-59
2021/12/27 17:19:38;;;;;;;159.15;40.83;;;;;;;;;;6227020;28;21303;-62
2021/12/27 17:22:39;;;;;;;148.40;41.72;;;;;;;;;;6228189;28;20065;-61
2021/12/27 17:25:40;;;;;;;159.23;42.83;;;;;;;;;;6230433;28;20425;-62
2021/12/27 17:28:42;;;;;;;155.40;44.67;;;;;;;;;;6229382;28;20053;-63
2021/12/27 17:31:42;;;;;;;172.40;47.83;;;;;;;;;;6231087;28;20050;-65
2021/12/27 17:34:43;;;;;;;186.88;52.08;;;;;;;;;;6229574;28;20709;-63
2021/12/27 17:37:44;;;;;;;179.15;48.05;;;;;;;;;;6228108;28;20049;-62
2021/12/27 17:40:45;;;;;;;165.77;45.55;;;;;;;;;;6229275;28;20045;-66
2021/12/27 17:43:45;;;;;;;170.00;43.85;;;;;;;;;;6231486;28;20053;-62
2021/12/27 17:46:47;;;;;;;159.75;43.58;;;;;;;;;;6230847;28;20115;-62
2021/12/27 17:49:49;;;;;;;159.38;43.67;;;;;;;;;;6221522;28;20053;-66
2021/12/27 17:52:50;;;;;;;160.77;46.45;;;;;;;;;;6224854;28;20552;-59
2021/12/27 17:55:50;;;;;;;170.40;46.05;;;;;;;;;;6225421;28;20046;-65
2021/12/27 17:58:51;;;;;;;168.45;49.13;;;;;;;;;;6225276;28;20053;-63
2021/12/27 18:01:53;;;;;;;165.32;45.40;;;;;;;;;;6224832;28;20042;-66
2021/12/27 18:04:53;;;;;;;173.00;51.53;;;;;;;;;;6224053;28;20107;-61
2021/12/27 18:07:54;;;;;;;185.80;51.97;;;;;;;;;;6219392;28;20140;-64
2021/12/27 18:10:55;;;;;;;188.27;50.05;;;;;;;;;;6225071;28;20065;-67
2021/12/27 18:13:59;;;;;;;192.50;54.28;;;;;;;;;;6227473;28;20068;-64
2021/12/27 18:17:00;;;;;;;194.02;50.42;;;;;;;;;;6226198;28;20061;-66
2021/12/27 18:20:07;;;;;;;180.95;51.33;;;;;;;;;;6224119;28;20049;-61
2021/12/27 18:23:09;;;;;;;174.93;51.30;;;;;;;;;;6221601;28;20041;-66
2021/12/27 18:26:10;;;;;;;188.23;49.92;;;;;;;;;;6224989;28;20140;-62
2021/12/27 18:29:12;;;;;;;163.25;49.60;;;;;;;;;;6221576;28;20045;-59
2021/12/27 18:32:14;;;;;;;190.57;51.35;;;;;;;;;;6224310;28;20053;-63
2021/12/27 18:35:16;;;;;;;168.45;46.13;;;;;;;;;;6225423;28;20563;-63
2021/12/27 18:38:19;;;;;;;173.00;46.22;;;;;;;;;;6224466;28;20095;-64
2021/12/27 18:41:20;;;;;;;155.63;45.90;;;;;;;;;;6221532;28;20049;-64
2021/12/27 18:44:21;;;;;;;176.75;49.33;;;;;;;;;;6221999;28;20516;-62
2021/12/27 18:47:22;;;;;;;174.88;48.53;;;;;;;;;;6220569;28;20135;-60
2021/12/27 18:50:23;;;;;;;181.40;52.67;;;;;;;;;;6220979;28;20060;-65
2021/12/27 18:53:24;;;;;;;173.13;50.58;;;;;;;;;;6221889;28;20160;-64
2021/12/27 18:56:25;;;;;;;185.48;53.95;;;;;;;;;;6221758;28;20508;-64
2021/12/27 18:59:27;;;;;;;151.73;44.08;;;;;;;;;;6220362;28;20042;-64
2021/12/27 19:02:29;;;;;;;169.52;45.60;;;;;;;;;;6224079;28;20563;-64
2021/12/27 19:05:30;;;;;;;;;;;;;;;;;;6223384;28;20041;-64
2021/12/27 19:08:32;;;;;;;153.77;42.40;;;;;;;;;;6221557;28;21608;-64
2021/12/27 19:11:34;;;;;;;155.52;43.78;;;;;;;;;;6223184;28;20569;-66
2021/12/27 19:14:35;;;;;;;163.52;45.60;;;;;;;;;;6222703;28;20049;-65
2021/12/27 19:17:36;;;;;;;158.57;41.70;;;;;;;;;;6221843;28;20045;-67
2021/12/27 19:20:39;;;;;;;166.73;45.08;;;;;;;;;;6219997;28;20049;-66
2021/12/27 19:23:41;;;;;;;179.77;47.72;;;;;;;;;;6225212;28;20115;-66
2021/12/27 19:26:42;;;;;;;177.50;47.72;;;;;;;;;;6228273;28;20053;-64
2021/12/27 19:29:43;;;;;;;159.65;46.65;;;;;;;;;;6226234;28;20045;-64
2021/12/27 19:32:44;;;;;;;156.68;43.80;;;;;;;;;;6228770;28;20137;-65
2021/12/27 19:35:46;;;;;;;169.27;44.90;;;;;;;;;;6228707;28;20054;-66
2021/12/27 19:38:47;;;;;;;;;;;;;;;;;;6223318;28;20048;-66
2021/12/27 19:41:49;;;;;;;147.40;45.88;;;;;;;;;;6224897;28;19929;-66
2021/12/27 19:44:50;;;;;;;179.80;50.60;;;;;;;;;;6227523;28;20497;-63
2021/12/27 19:47:53;;;;;;;166.80;48.33;;;;;;;;;;6226401;28;20439;-63
2021/12/27 19:50:53;;;;;;;185.57;51.33;;;;;;;;;;6227081;28;20144;-67
2021/12/27 19:53:54;;;;;;;195.88;64.00;;;;;;;;;;6219491;28;20076;-62
2021/12/27 19:56:55;;;;;;;207.20;62.97;;;;;;;;;;6222222;28;20048;-65
2021/12/27 19:59:56;;;;;;;190.88;50.85;;;;;;;;;;6218983;28;20042;-66
2021/12/27 20:02:57;;;;;;;198.65;53.25;;;;;;;;;;6222926;28;20046;-63
2021/12/27 20:05:58;;;;;;;207.70;64.45;;;;;;;;;;6227422;28;20485;-61
2021/12/27 20:08:58;;;;;;;187.73;53.10;;;;;;;;;;6226453;28;20076;-62
2021/12/27 20:11:59;;;;;;;172.05;51.97;;;;;;;;;;6220995;28;20558;-64
2021/12/27 20:15:00;;;;;;;176.95;50.00;;;;;;;;;;6222709;28;20046;-65
2021/12/27 20:18:03;;;;;;;152.38;45.90;;;;;;;;;;6219415;28;20057;-65
2021/12/27 20:21:05;;;;;;;;;;;;;;;;;;6222753;28;20920;-65
2021/12/27 20:24:07;;;;;;;142.40;42.75;;;;;;;;;;6222052;28;20553;-66
2021/12/27 20:27:09;;;;;;;148.55;41.47;;;;;;;;;;6223236;28;20834;-67
2021/12/27 20:30:10;;;;;;;153.27;44.65;;;;;;;;;;6225292;28;20057;-60
2021/12/27 20:33:11;;;;;;;146.70;40.63;;;;;;;;;;6226132;28;20057;-63
2021/12/27 20:36:12;;;;;;;150.68;42.67;;;;;;;;;;6228861;28;20053;-65
2021/12/27 20:39:13;;;;;;;147.68;43.15;;;;;;;;;;6222665;28;20068;-65
2021/12/27 20:42:14;;;;;;;173.73;46.00;;;;;;;;;;6225748;28;20504;-67
2021/12/27 20:45:14;;;;;;;152.07;44.45;;;;;;;;;;6225875;28;20058;-63
2021/12/27 20:48:15;;;;;;;158.13;43.28;;;;;;;;;;6223524;28;20168;-64
2021/12/27 20:51:16;;;;;;;165.48;47.30;;;;;;;;;;6226425;28;20115;-68
2021/12/27 20:54:17;;;;;;;151.63;44.85;;;;;;;;;;6223597;28;20567;-64
2021/12/27 20:57:19;;;;;;;166.20;50.05;;;;;;;;;;6226654;28;20144;-60
2021/12/27 21:00:23;;;;;;;154.63;44.03;;;;;;;;;;6207307;28;20045;-67
2021/12/27 21:03:24;;;;;;;152.57;43.80;;;;;;;;;;6225526;28;21182;-60
2021/12/27 21:06:25;;;;;;;160.95;48.03;;;;;;;;;;6226369;28;20053;-66
2021/12/27 21:09:26;;;;;;;164.07;47.33;;;;;;;;;;6224781;28;20042;-61
2021/12/27 21:12:27;;;;;;;150.63;43.80;;;;;;;;;;6226018;28;20037;-66
2021/12/27 21:15:28;;;;;;;159.48;46.45;;;;;;;;;;6224432;28;20813;-67
2021/12/27 21:18:29;;;;;;;163.40;48.00;;;;;;;;;;6222756;28;20046;-62
2021/12/27 21:21:30;;;;;;;167.48;49.88;;;;;;;;;;6226392;28;20046;-63
2021/12/27 21:24:30;;;;;;;185.73;58.80;;;;;;;;;;6227802;28;20621;-64
2021/12/27 21:27:31;;;;;;;205.18;55.70;;;;;;;;;;6229533;28;20069;-66
2021/12/27 21:30:33;;;;;;;174.70;53.40;;;;;;;;;;6224348;28;20044;-62
2021/12/27 21:33:33;;;;;;;171.02;51.30;;;;;;;;;;6228077;28;20046;-64
2021/12/27 21:36:34;;;;;;;206.52;55.88;;;;;;;;;;6224565;28;20135;-67
2021/12/27 21:39:36;;;;;;;220.68;60.63;;;;;;;;;;6225259;28;20590;-60
2021/12/27 21:42:36;;;;;;;182.27;52.92;;;;;;;;;;6226963;28;20045;-66
2021/12/27 21:45:37;;;;;;;180.70;51.20;;;;;;;;;;6225853;28;20268;-65
2021/12/27 21:48:38;;;;;;;207.90;57.33;;;;;;;;;;6220533;28;20100;-65
2021/12/27 21:51:39;;;;;;;189.70;51.10;;;;;;;;;;6207598;28;20046;-66
2021/12/27 21:54:40;;;;;;;191.98;52.80;;;;;;;;;;6207106;28;20417;-62
2021/12/27 21:57:41;;;;;;;186.90;47.70;;;;;;;;;;6206211;28;20034;-62
2021/12/27 22:00:44;;;;;;;169.18;50.47;;;;;;;;;;6208093;28;20076;-67
2021/12/27 22:03:45;;;;;;;193.23;51.35;;;;;;;;;;6205801;28;20053;-66
2021/12/27 22:06:46;;;;;;;199.55;49.38;;;;;;;;;;6208968;28;20053;-63
2021/12/27 22:09:47;;;;;;;198.18;60.75;;;;;;;;;;6203190;28;20041;-63
2021/12/27 22:12:48;;;;;;;197.40;57.67;;;;;;;;;;6207389;28;20140;-66
2021/12/27 22:15:48;;;;;;;224.55;57.72;;;;;;;;;;6206596;28;21451;-65
2021/12/27 22:18:49;;;;;;;201.20;55.20;;;;;;;;;;6206405;28;20061;-65
2021/12/27 22:21:49;;;;;;;202.63;53.78;;;;;;;;;;6209002;28;20062;-60
2021/12/27 22:24:51;;;;;;;192.48;54.05;;;;;;;;;;6208325;28;20054;-62
2021/12/27 22:27:52;;;;;;;202.57;53.47;;;;;;;;;;6207087;28;20561;-63
2021/12/27 22:30:53;;;;;;;178.88;51.83;;;;;;;;;;6205973;28;20149;-65
2021/12/27 22:33:54;;;;;;;169.02;46.95;;;;;;;;;;6204833;28;20046;-60
2021/12/27 22:36:55;;;;;;;183.52;51.58;;;;;;;;;;6209716;28;20056;-62
2021/12/27 22:39:55;;;;;;;191.85;52.08;;;;;;;;;;6204395;28;20501;-64
2021/12/27 22:42:57;;;;;;;194.27;49.95;;;;;;;;;;6208712;28;20160;-64
2021/12/27 22:45:57;;;;;;;152.98;45.00;;;;;;;;;;6207065;28;20084;-64
2021/12/27 22:48:58;;;;;;;172.57;47.47;;;;;;;;;;6210133;28;20425;-65
2021/12/27 22:51:59;;;;;;;160.98;46.97;;;;;;;;;;6221158;28;20061;-64
2021/12/27 22:54:59;;;;;;;162.07;46.03;;;;;;;;;;6221762;28;20050;-60
2021/12/27 22:58:02;;;;;;;162.88;43.17;;;;;;;;;;6221718;28;20049;-62
2021/12/27 23:01:03;;;;;;;155.68;43.53;;;;;;;;;;6204839;28;20606;-64
2021/12/27 23:04:03;;;;;;;143.35;41.70;;;;;;;;;;6220280;28;20053;-63
2021/12/27 23:07:04;;;;;;;148.27;40.40;;;;;;;;;;6221117;28;20044;-64
2021/12/27 23:10:05;;;;;;;138.73;42.40;;;;;;;;;;6218778;28;20045;-65
2021/12/27 23:13:06;;;;;;;148.15;43.95;;;;;;;;;;6222218;28;20069;-66
2021/12/27 23:16:07;;;;;;;143.05;40.58;;;;;;;;;;6221453;28;20057;-65
2021/12/27 23:19:08;;;;;;;133.43;42.83;;;;;;;;;;6219512;28;20104;-60
2021/12/27 23:22:08;;;;;;;129.50;37.60;;;;;;;;;;6221194;28;20073;-64
2021/12/27 23:25:11;;;;;;;127.40;38.13;;;;;;;;;;6217951;28;20428;-65
2021/12/27 23:28:11;;;;;;;;;;;;;;;;;;6219897;28;20873;-64
2021/12/27 23:31:14;;;;;;;118.32;36.33;;;;;;;;;;6221712;28;20465;-66